Stagione 2023 · Round 15

Singapore Grand Prix

2023-09-17 · Marina Bay Street Circuito · Singapore · Singapore Grand Prix · 62Lap · 306.143km
Ferrari 1:46:37.418
Vittoria di squadra 37pt P1 · P4
McLaren +0.812
Mercedes +1.269
Giro veloce
1:35.867 · L47
Ritiro
3
Valtteri Bottas L51 Esteban Ocon L42 Yuki Tsunoda L0
Meteo
30°/36°
media aria/pista · asciutto · umidità 72%
Safety car
2
schierata al giro L20, L44
Uso gomme Direzione gara
Storylines · This Grand Prix & circuit
Più vittorie in questo GP
Sebastian Vettel 5 vittorie
Lewis Hamilton attivo 4 vittorie
Conversione pole-vittoria 11/16 68.8%
Most SC/VSC · all-time P14
Arrivo più ravvicinato · all-time P20
Circuito Info
Marina Bay Street Circuito Marina Bay, Singapore
62Lap 306.143km 17 gare held (2008–) Record del giro 1:33.808 · Lewis Hamilton (2025)
Record Watch · Active drivers ranked at this Grand Prix
P2 Lewis Hamilton 4 vittorie · → Sebastian Vettel -1
P3 Fernando Alonso 2 vittorie · → Lewis Hamilton -2
P4 Lando Norris 1 vittorie · → Fernando Alonso -1
P1 Lewis Hamilton 16 partenze · GP #1
P2 Fernando Alonso 15 partenze · → Lewis Hamilton -1
P4 Nico Hülkenberg 12 partenze · → Sebastian Vettel -1
Gara Trace · position by lap
SC · giri 20–22 VSC · giri 44–45 partenza da fermo SG 1 6 11 16 21 26 31 36 41 46 51 56 61 FIN Sainz · sosta ai box L20 Sainz SAI Sainz SAI Norris · sosta ai box L20 Norris NOR Norris NOR Hamilton · sosta ai box L20 Hamilton · sosta ai box L44 Hamilton HAM Hamilton HAM Leclerc · sosta ai box L20 Leclerc LEC Leclerc LEC Verstappen · sosta ai box L40 Verstappen VER Verstappen VER Gasly · sosta ai box L20 Gasly GAS Gasly GAS Piastri · sosta ai box L20 Piastri PIA Piastri PIA Pérez · sosta ai box L39 Pérez · +5s aggiunto a fine gara Pérez PER Pérez PER Lawson · sosta ai box L20 Lawson LAW Lawson LAW Magnussen · sosta ai box L20 Magnussen · sosta ai box L43 Magnussen MAG Magnussen MAG Albon · sosta ai box L20 Albon · sosta ai box L43 Albon ALB Albon ALB Zhou · sosta ai box L2 Zhou · sosta ai box L20 Zhou ZHO Zhou ZHO Hülkenberg · sosta ai box L20 Hülkenberg HUL Hülkenberg HUL Sargeant · sosta ai box L19 Sargeant · sosta ai box L43 Sargeant SAR Sargeant SAR Alonso · sosta ai box L20 Alonso · sosta ai box L44 · penalità scontata Alonso ALO Alonso ALO Russell · sosta ai box L20 Russell · sosta ai box L44 Russell · fermo L61 · classificato P16 Russell RUS Russell RUS Bottas · sosta ai box L40 Bottas · ritiro L51 Bottas BOT Bottas BOT Ocon · sosta ai box L20 Ocon · ritiro L42 Ocon OCO Ocon OCO Tsunoda · ritiro L0 Tsunoda TSU Tsunoda TSU
SC·VSC sosta ai box penalità scontata ai box SG Griglia di partenza FIN classifica ufficiale penalità aggiunta a fine gara vettura ferma posizione a ogni giro (dal 1996)
PosPilotaTeamGrigliaGiroTempo / StatoPunti
1 55 Carlos Sainz Ferrari 1 62 1:46:37.418 25
2 4 Lando Norris McLaren 4 62 +0.812 18
3 44 Lewis Hamilton FL Mercedes 5 62 +1.269 16
4 16 Charles Leclerc Ferrari 3 62 +21.177 12
5 1 Max Verstappen Red Bull 11 62 +21.441 10
6 10 Pierre Gasly Alpine F1 Team 12 62 +38.441 8
7 81 Oscar Piastri McLaren 17 62 +41.479 6
8 11 Sergio Pérez Red Bull 13 62 +59.534 4
9 40 Liam Lawson AlphaTauri 10 62 +1:05.918 2
10 20 Kevin Magnussen Haas F1 Team 6 62 +1:12.116 1
11 23 Alexander Albon Williams 14 62 +1:13.417
12 24 Guanyu Zhou Alfa Romeo 19 62 +1:23.649
13 27 Nico Hülkenberg Haas F1 Team 9 62 +1:26.201
14 2 Logan Sargeant Williams 18 62 +1:26.889
15 14 Fernando Alonso Aston Martin 7 62 +1:27.603
16 63 George Russell Mercedes 2 61
R 77 Valtteri Bottas Alfa Romeo 16 51 Retired
R 31 Esteban Ocon Alpine F1 Team 8 42 Retired
R 22 Yuki Tsunoda AlphaTauri 15 0 Retired
W 18 Lance Stroll Aston Martin 0 0 Withdrew
PosPilotaTeamQ1Q2Q3Distacco dalla pole
1 55 Carlos Sainz Ferrari 1:32.339 1:31.439 1:30.984 POLE Q3
2 63 George Russell Mercedes 1:32.331 1:31.743 1:31.056 +0.072 Q3
3 16 Charles Leclerc Ferrari 1:32.406 1:32.012 1:31.063 +0.079 Q3
4 4 Lando Norris McLaren 1:32.483 1:31.951 1:31.270 +0.286 Q3
5 44 Lewis Hamilton Mercedes 1:32.651 1:32.019 1:31.485 +0.501 Q3
6 20 Kevin Magnussen Haas F1 Team 1:32.242 1:31.892 1:31.575 +0.591 Q3
7 14 Fernando Alonso Aston Martin 1:32.584 1:31.835 1:31.615 +0.631 Q3
8 31 Esteban Ocon Alpine F1 Team 1:32.369 1:32.089 1:31.673 +0.689 Q3
9 27 Nico Hülkenberg Haas F1 Team 1:32.100 1:31.994 1:31.808 +0.824 Q3
10 40 Liam Lawson AlphaTauri 1:32.215 1:32.166 1:32.268 +1.182 Q2
11 1 Max Verstappen Red Bull 1:32.398 1:32.173 +1.189 Q2
12 10 Pierre Gasly Alpine F1 Team 1:32.452 1:32.274 +1.290 Q2
13 11 Sergio Pérez Red Bull 1:32.099 1:32.310 +1.115 Q1
14 23 Alexander Albon Williams 1:32.668 1:33.719 +1.684 Q1
15 22 Yuki Tsunoda AlphaTauri 1:31.991 +1.007 Q1
16 77 Valtteri Bottas Alfa Romeo 1:32.809 +1.825 Q1
17 81 Oscar Piastri McLaren 1:32.902 +1.918 Q1
18 2 Logan Sargeant Williams 1:33.252 +2.268 Q1
19 24 Guanyu Zhou Alfa Romeo 1:33.258 +2.274 Q1
20 18 Lance Stroll Aston Martin 1:33.397 +2.413 Q1
Griglia di partenza
Ufficiale
Final grid as classificato, including any dalla pit lane partenze. Source: Jolpica-F1. The arrow compares the grid slot with the le qualifiche classification; hover a drop to see the stewards document behind it.
Nessun dato per questa sessione.
PosPilotaGiro miglioreDistaccoGiri
1 16 Charles Leclerc 1:33.350 25
2 55 Carlos Sainz 1:33.428 +0.078 24
3 1 Max Verstappen 1:33.476 +0.126 22
4 4 Lando Norris 1:33.522 +0.172 24
5 44 Lewis Hamilton 1:33.540 +0.190 21
6 63 George Russell 1:33.695 +0.345 25
7 11 Sergio Pérez 1:33.725 +0.375 22
8 14 Fernando Alonso 1:33.974 +0.624 28
9 22 Yuki Tsunoda 1:34.042 +0.692 25
10 31 Esteban Ocon 1:34.066 +0.716 24
11 18 Lance Stroll 1:34.568 +1.218 25
12 10 Pierre Gasly 1:34.639 +1.289 23
13 23 Alexander Albon 1:34.657 +1.307 19
14 77 Valtteri Bottas 1:34.802 +1.452 25
15 20 Kevin Magnussen 1:34.887 +1.537 23
16 40 Liam Lawson 1:34.894 +1.544 27
17 27 Nico Hülkenberg 1:34.985 +1.635 22
18 24 Guanyu Zhou 1:35.456 +2.106 25
19 81 Oscar Piastri 1:35.474 +2.124 22
20 2 Logan Sargeant 1:35.778 +2.428 24
Classified by best lap · source OpenF1 (2023+)
PosPilotaGiro miglioreDistaccoGiri
1 55 Carlos Sainz 1:32.120 26
2 16 Charles Leclerc 1:32.138 +0.018 27
3 63 George Russell 1:32.355 +0.235 25
4 14 Fernando Alonso 1:32.478 +0.358 25
5 44 Lewis Hamilton 1:32.585 +0.465 23
6 4 Lando Norris 1:32.711 +0.591 23
7 11 Sergio Pérez 1:32.812 +0.692 23
8 1 Max Verstappen 1:32.852 +0.732 23
9 20 Kevin Magnussen 1:33.017 +0.897 25
10 77 Valtteri Bottas 1:33.105 +0.985 24
11 27 Nico Hülkenberg 1:33.139 +1.019 22
12 40 Liam Lawson 1:33.285 +1.165 27
13 31 Esteban Ocon 1:33.361 +1.241 25
14 18 Lance Stroll 1:33.390 +1.270 25
15 81 Oscar Piastri 1:33.461 +1.341 23
16 22 Yuki Tsunoda 1:33.477 +1.357 27
17 24 Guanyu Zhou 1:33.575 +1.455 25
18 10 Pierre Gasly 1:33.824 +1.704 24
19 2 Logan Sargeant 1:34.327 +2.207 28
20 23 Alexander Albon 1:35.558 +3.438 5
Classified by best lap · source OpenF1 (2023+)
PosPilotaGiro miglioreDistaccoGiri
1 55 Carlos Sainz 1:32.065 23
2 63 George Russell 1:32.134 +0.069 20
3 4 Lando Norris 1:32.303 +0.238 17
4 1 Max Verstappen 1:32.378 +0.313 21
5 16 Charles Leclerc 1:32.381 +0.316 25
6 44 Lewis Hamilton 1:32.535 +0.470 18
7 81 Oscar Piastri 1:32.730 +0.665 18
8 11 Sergio Pérez 1:32.784 +0.719 20
9 27 Nico Hülkenberg 1:32.896 +0.831 18
10 22 Yuki Tsunoda 1:32.945 +0.880 18
11 20 Kevin Magnussen 1:32.970 +0.905 16
12 31 Esteban Ocon 1:32.979 +0.914 19
13 14 Fernando Alonso 1:33.051 +0.986 19
14 18 Lance Stroll 1:33.126 +1.061 23
15 10 Pierre Gasly 1:33.351 +1.286 19
16 40 Liam Lawson 1:33.357 +1.292 19
17 23 Alexander Albon 1:33.370 +1.305 15
18 77 Valtteri Bottas 1:33.540 +1.475 26
19 24 Guanyu Zhou 1:33.637 +1.572 24
20 2 Logan Sargeant 1:33.708 +1.643 16
Classified by best lap · source OpenF1 (2023+)
#PilotaTempo sul giroGiro
1 44 Lewis Hamilton 1:35.867 L47
2 44 Lewis Hamilton 1:36.122 L48
3 44 Lewis Hamilton 1:36.220 L49
4 63 George Russell 1:36.273 L46
5 44 Lewis Hamilton 1:36.411 L56
6 63 George Russell 1:36.419 L47
7 14 Fernando Alonso 1:36.456 L47
8 44 Lewis Hamilton 1:36.462 L50
9 44 Lewis Hamilton 1:36.479 L51
10 44 Lewis Hamilton 1:36.555 L52
Top 10 più veloce race giri — #1 is the più veloce lap of la gara(FL).
Pit stop · a confronto
30s 35s 40s 45s 50s 55s 60s 65s mediana 30.6s Sergio Pérez · L39 · 28.977s Oscar Piastri · L20 · 29.369s Lando Norris · L20 · 29.485s Carlos Sainz · L20 · 29.499s Max Verstappen · L40 · 29.698s Esteban Ocon · L20 · 29.755s Alexander Albon · L43 · 29.787s George Russell · L20 · 29.976s Guanyu Zhou · L2 · 30.032s George Russell · L44 · 30.039s Alexander Albon · L20 · 30.138s Valtteri Bottas · L40 · 30.487s Guanyu Zhou · L20 · 30.637s Fernando Alonso · L20 · 30.670s Logan Sargeant · L43 · 31.018s Kevin Magnussen · L20 · 31.475s Pierre Gasly · L20 · 31.802s Liam Lawson · L20 · 32.348s Lewis Hamilton · L20 · 32.631s Charles Leclerc · L20 · 32.888s Kevin Magnussen · L43 · 33.078s Lewis Hamilton · L44 · 33.581s Nico Hülkenberg · L20 · 35.497s Fernando Alonso · L44 · 52.708s · penalità scontata Logan Sargeant · L19 · 63.543s
più veloce 28.977s Sergio Pérez più lenta 63.543s Logan Sargeant penalità scontata tempo di transito nella dalla pit lane — un punto per sosta
PilotaSostaGiroTempoTransito in dalla pit lane
24 Guanyu Zhou 1 2 20:07:21 30.032s
2 Logan Sargeant 1 19 20:36:42 63.543s
23 Alexander Albon 1 20 20:37:59 30.138s
4 Lando Norris 1 20 20:37:31 29.485s
31 Esteban Ocon 1 20 20:37:43 29.755s
81 Oscar Piastri 1 20 20:37:58 29.369s
63 George Russell 1 20 20:37:29 29.976s
55 Carlos Sainz 1 20 20:37:19 29.499s
20 Kevin Magnussen 1 20 20:37:50 31.475s
16 Charles Leclerc 1 20 20:37:28 32.888s
40 Liam Lawson 1 20 20:37:55 32.348s
27 Nico Hülkenberg 1 20 20:37:53 35.497s
14 Fernando Alonso 1 20 20:37:39 30.670s
44 Lewis Hamilton 1 20 20:37:33 32.631s
10 Pierre Gasly 1 20 20:37:54 31.802s
24 Guanyu Zhou 2 20 20:38:30 30.637s
11 Sergio Pérez 1 39 21:11:53 28.977s
1 Max Verstappen 1 40 21:13:21 29.698s
77 Valtteri Bottas 1 40 21:13:47 30.487s
20 Kevin Magnussen 2 43 21:19:04 33.078s
2 Logan Sargeant 2 43 21:19:17 31.018s
23 Alexander Albon 2 43 21:18:51 29.787s
63 George Russell 2 44 21:20:21 30.039s
14 Fernando Alonso 2 44 21:20:59 52.708s
44 Lewis Hamilton 2 44 21:20:24 33.581s
soste
SG 10 20 30 40 50 L62
55
1
M19
H43
4
1
M19
H43
44
2
M19
H24
M19
16
1
S19·+3
H43
1
1
H39
M23
10
1
M19
H43
81
1
M19
H43
11
1
H38
M24
40
1
M19
H43
20
2
M19
H23
S20·+3
23
2
M19
H23
M20
24
2
S1
H18
M43
27
1
M19
H43
2
2
M18
H24
M20
14
2
M19
H24
S19·+2
63
2
M19
H24
M18
77
1
H39
M12
31
1
M19
H23
22
0
S1
S Soft M Medium H Hard I Intermediate W Wet SC·VSC sosta ai box penalità scontata ai box
Gara · larghezza barra = giri su quel treno, ·+N = montato usato con N giri pregressi · fonte OpenF1 (2023+)
Mescole designate per questo Gran Premio
C3 Dura C4 Media C5 Morbida
Pirelli designa tre delle sue mescole slick per ogni evento; più alto è il numero C, più morbida è la gomma. Documento FIA ↗
Più posizioni guadagnate in pista
11
+19
P13→P8
1
+18
P11→P5
24
+11
P19→P12
77
+11
P16→P—
23
+10
P14→P11
81
+8
P17→P7
20
+8
P6→P10
27
+8
P9→P13
Più posizioni perse
Sergio Pérez −14 Fernando Alonso −14 Max Verstappen −13
Gara · Somma delle posizioni guadagnate in pista giro per giro — esclusi il giro di partenza e i propri giri ai box. Dati dei giri di gara dal 1996.
PilotaTipoGiroScontataAssegnataMotivo
23 Alexander Albon No further action Car 23 overtaking Car 11 under VSC at 21:19. (No further action.) Documento FIA ↗
Car 23 overtaking Car 11 under VSC at 21:19. (No further action.) Documento FIA ↗
18 Lance Stroll Penalità in griglia PIT (dalla pit lane start (quali P20))
PIT (dalla pit lane start (quali P20))
11 Sergio Pérez Time penalty A fine gara +5s · 1pt Turn 13 incident between Cars 11 and 23 at 21:44. (5 second time penalty. 1 penalty point (total of 3 for the 12 month period).) Documento FIA ↗
Scontata A fine gara · +5s · 1pt Turn 13 incident between Cars 11 and 23 at 21:44. (5 second time penalty. 1 penalty point (total of 3 for the 12 month period).) Documento FIA ↗
14 Fernando Alonso Time penalty 23 44 +5s Failure to enter the dalla pit lane to the left of the white line, contrary to the Gara Director’s Event Note (item 14.1, document 16) (5 second time penalty.) Documento FIA ↗
Giro 23 · Scontata 44 · +5s Failure to enter the dalla pit lane to the left of the white line, contrary to the Gara Director’s Event Note (item 14.1, document 16) (5 second time penalty.) Documento FIA ↗
20 Kevin Magnussen Black-and-white flag warning 26 FORCING ANOTHER DRIVER OFF THE TRACK
Giro 26 FORCING ANOTHER DRIVER OFF THE TRACK
Giro = giro in cui è stata inflitta la penalità · Scontata = giro in cui è stata scontata ai box (vuoto: sommata al tempo di gara)
Time, drive-through and stop-go penalties come from race control messages (OpenF1, 2023+). Griglia penalties never appear there — the stewards publish them as documents after the session — so they are worked back from the starting grid against the le qualifiche classification, which gives places actually lost rather than the figure written in the decision.
PilotaTipoGiroScontataAssegnataMotivo
24 Guanyu Zhou Pit lane start The following Power Unit elements have been usati: 5th Internal Combustion Motore (ICE) 5th Turbo Charger (TC) 5th Motor Generator Unit - Heat (MGU-H) 3rd Control Electronics (CE) All elements above were replaced without the approval of the FIA Technical D (Required to start the Gara from the dalla pit lane.) Documento FIA ↗
The following Power Unit elements have been usati: 5th Internal Combustion Motore (ICE) 5th Turbo Charger (TC) 5th Motor Generator Unit - Heat (MGU-H) 3rd Control Electronics (CE) All elements above were replaced without the approval of the FIA Technical D (Required to start the Gara from the dalla pit lane.) Documento FIA ↗
1 Max Verstappen Reprimenda €5,000 Car 1 unnecessarily impeding Car 22 between Turns 3 and 4 at 21:57. (Reprimenda (Driving). This is the driver’s 2nd reprimand of the season. The competitor (Oracle Red Bu) Documento FIA ↗
€5,000 Car 1 unnecessarily impeding Car 22 between Turns 3 and 4 at 21:57. (Reprimenda (Driving). This is the driver’s 2nd reprimand of the season. The competitor (Oracle Red Bu) Documento FIA ↗
1 Max Verstappen No further action Car 1 unnecessarily impeding car 2 between Turns 17 and 18 at 21:17. (No further action.) Documento FIA ↗
Car 1 unnecessarily impeding car 2 between Turns 17 and 18 at 21:17. (No further action.) Documento FIA ↗
1 Max Verstappen Reprimenda Car 1 unnecessarily impeding cars exiting the Pit Lane at 21:14. (Reprimenda (Driving). This is the driver’s 1st reprimand of the season.) Documento FIA ↗
Car 1 unnecessarily impeding cars exiting the Pit Lane at 21:14. (Reprimenda (Driving). This is the driver’s 1st reprimand of the season.) Documento FIA ↗
2 Logan Sargeant Reprimenda €5,000 Car 2 unnecessarily impeding Car 18 in turn 8 at 21:04. (Reprimenda (Driving) on the Pilota. This is the driver’s 1st reprimand of the season. The competitor ) Documento FIA ↗
€5,000 Car 2 unnecessarily impeding Car 18 in turn 8 at 21:04. (Reprimenda (Driving) on the Pilota. This is the driver’s 1st reprimand of the season. The competitor ) Documento FIA ↗
Giro = giro in cui è stata inflitta la penalità · Scontata = giro in cui è stata scontata ai box (vuoto: sommata al tempo di gara)
Time, drive-through and stop-go penalties come from race control messages (OpenF1, 2023+). Griglia penalties never appear there — the stewards publish them as documents after the session — so they are worked back from the starting grid against the le qualifiche classification, which gives places actually lost rather than the figure written in the decision.
PilotaTipoGiroScontataAssegnataMotivo
55 Carlos Sainz Fine €100 Pit lane speeding – 60.4 km/h (The competitor (Scuderia Ferrari) is fined €100.) Documento FIA ↗
€100 Pit lane speeding – 60.4 km/h (The competitor (Scuderia Ferrari) is fined €100.) Documento FIA ↗
27 Nico Hülkenberg Fine €400 Pit lane speeding – 63.7 km/h (The competitor (MoneyGram Haas F1 Team) is fined €400.) Documento FIA ↗
€400 Pit lane speeding – 63.7 km/h (The competitor (MoneyGram Haas F1 Team) is fined €400.) Documento FIA ↗
77 Valtteri Bottas Black-and-white flag warning FAILING TO FOLLOW RACE DIRECTORS INSTRUCTIONS – CROSSING THE LINE AT PIT ENTRY
FAILING TO FOLLOW RACE DIRECTORS INSTRUCTIONS – CROSSING THE LINE AT PIT ENTRY
Giro = giro in cui è stata inflitta la penalità · Scontata = giro in cui è stata scontata ai box (vuoto: sommata al tempo di gara)
Time, drive-through and stop-go penalties come from race control messages (OpenF1, 2023+). Griglia penalties never appear there — the stewards publish them as documents after the session — so they are worked back from the starting grid against the le qualifiche classification, which gives places actually lost rather than the figure written in the decision.
DocTitoloOggettoPublished(CET)
Event Notes - Pirelli Preview ↗ 2023-09-13 06:16
2023-09-13 06:16 CET
Car Display Procedure ↗ 2023-09-14 08:06
2023-09-14 08:06 CET
Event Notes - Circuito Map, Pit Lane and Red Zone ↗ 2023-09-14 10:51
2023-09-14 10:51 CET
Gara Director's Event Notes ↗ 2023-09-14 11:16
2023-09-14 11:16 CET
PU elements usati per driver up to now ↗ 2023-09-15 07:35
2023-09-15 07:35 CET
RNCs usati per driver up to now ↗ 2023-09-15 07:35
2023-09-15 07:35 CET
Self scrutineering ↗ 2023-09-15 09:36
2023-09-15 09:36 CET
Entry List ↗ 2023-09-15 10:00
2023-09-15 10:00 CET
New RNCs for this Competition ↗ 2023-09-15 11:33
2023-09-15 11:33 CET
P1 Classification ↗ 2023-09-15 12:50
2023-09-15 12:50 CET
P2 Classification ↗ 2023-09-15 16:15
2023-09-15 16:15 CET
P1 and P2 scrutineering ↗ 2023-09-15 17:24
2023-09-15 17:24 CET
Gara Director's Note - SC2-SC1 Time ↗ 2023-09-15 18:40
2023-09-15 18:40 CET
Post-Qualifiche Procedure ↗ 2023-09-16 07:01
2023-09-16 07:01 CET
Post-Qualifiche Procedure V2 ↗ 2023-09-16 07:35
2023-09-16 07:35 CET
Event Notes v2 ↗ 2023-09-16 08:41
2023-09-16 08:41 CET
Additional Intermediate Gomme ↗ 2023-09-16 09:31
2023-09-16 09:31 CET
New PU elements for this Competition ↗ 2023-09-16 11:38
2023-09-16 11:38 CET
Infringement - Car 27 - Pit Lane Speeding ↗ 27 Nico Hülkenberg 2023-09-16 12:04
27 Nico Hülkenberg 2023-09-16 12:04 CET
Infringement - Car 55 - Pit Lane Speeding ↗ 55 Carlos Sainz 2023-09-16 12:17
55 Carlos Sainz 2023-09-16 12:17 CET
P3 Classification ↗ 2023-09-16 12:45
2023-09-16 12:45 CET
Summons - Car 2 - Alleged Impeding of Car 18 ↗ 2 Logan Sargeant 2023-09-16 16:18
2 Logan Sargeant 2023-09-16 16:18 CET
Summons - Car 1 - Alleged Impeding at Pit Exit ↗ 1 Max Verstappen 2023-09-16 16:32
1 Max Verstappen 2023-09-16 16:32 CET
Summons - Car 1 - Alleged Impeding of Car 22 ↗ 1 Max Verstappen 2023-09-16 16:33
1 Max Verstappen 2023-09-16 16:33 CET
Summons - Car 1 - Alleged Impeding between T17 and T18 ↗ 1 Max Verstappen 2023-09-16 16:33
1 Max Verstappen 2023-09-16 16:33 CET
Qualifiche Deleted Giro Time ↗ 2023-09-16 16:35
2023-09-16 16:35 CET
Provisional Qualifiche Classification ↗ 2023-09-16 16:41
2023-09-16 16:41 CET
P3 and Qualifiche scrutineering ↗ 2023-09-16 18:26
2023-09-16 18:26 CET
Infringement - Car 2 - Impeding of Car 18 ↗ 2 Logan Sargeant 2023-09-16 18:29
2 Logan Sargeant 2023-09-16 18:29 CET
Infringement - Car 1 - Impeding at Pit Exit ↗ 1 Max Verstappen 2023-09-16 18:43
1 Max Verstappen 2023-09-16 18:43 CET
Infringement - Car 1 - Impeding of Car 22 ↗ 1 Max Verstappen 2023-09-16 18:46
1 Max Verstappen 2023-09-16 18:46 CET
Decision - Car 1 - Alleged impeding of Car 2 ↗ 1 Max Verstappen 2023-09-16 18:46
1 Max Verstappen 2023-09-16 18:46 CET
Final Qualifiche Classification ↗ 2023-09-16 18:50
2023-09-16 18:50 CET
Provisional Starting Griglia ↗ 2023-09-16 18:55
2023-09-16 18:55 CET
Parc Fermé issues ↗ 2023-09-17 11:05
2023-09-17 11:05 CET
Pre-Gara Procedure ↗ 2023-09-17 11:27
2023-09-17 11:27 CET
Post-Gara Procedure ↗ 2023-09-17 11:31
2023-09-17 11:31 CET
Infringement - Car 24 - Changes made during Parc Ferme (PU) ↗ 24 Guanyu Zhou 2023-09-17 11:53
24 Guanyu Zhou 2023-09-17 11:53 CET
Parts and parameters been replaced and or changed during Parc Fermé ↗ 2023-09-17 11:56
2023-09-17 11:56 CET
Final Starting Griglia ↗ 2023-09-17 12:00
2023-09-17 12:00 CET
Infringement - Car 14 - Crossing the Pit Entry line ↗ 14 Fernando Alonso 2023-09-17 15:42
14 Fernando Alonso 2023-09-17 15:42 CET
Summons - Car 11 - Alleged overtaking by Car 23 under VSC ↗ 11 Sergio Pérez 2023-09-17 16:13
11 Sergio Pérez 2023-09-17 16:13 CET
Summons - Car 23 - Alleged overtaking of Car 11 under VSC ↗ 23 Alexander Albon 2023-09-17 16:13
23 Alexander Albon 2023-09-17 16:13 CET
Provisional Gara Classification ↗ 2023-09-17 16:13
2023-09-17 16:13 CET
Summons - Car 23 - T13 incident with Car 11 ↗ 23 Alexander Albon 2023-09-17 16:19
23 Alexander Albon 2023-09-17 16:19 CET
Summons - Car 11 - T13 incident with Car 23 ↗ 11 Sergio Pérez 2023-09-17 16:22
11 Sergio Pérez 2023-09-17 16:22 CET
Gara Deleted Giro Times ↗ 2023-09-17 17:56
2023-09-17 17:56 CET
Gara scrutineering ↗ 2023-09-17 17:56
2023-09-17 17:56 CET
Infringement - Car 11 - Causing a Collision ↗ 11 Sergio Pérez 2023-09-17 18:12
11 Sergio Pérez 2023-09-17 18:12 CET
Final Gara Classification ↗ 2023-09-17 18:15
2023-09-17 18:15 CET
Decision - Car 23 - Alleged overtaking of Car 11 under VSC ↗ 23 Alexander Albon 2023-09-17 18:15
23 Alexander Albon 2023-09-17 18:15 CET
Campionato Punti ↗ 2023-09-17 18:20
2023-09-17 18:20 CET
FIA official decisions and documents (fia.com) · PDF original PDF links
Record Basis · Calculation basis
Gara order is the final classification(post-race penalties applied) · le qualifiche session data 2003+ · lap times 1996+ · pit stops 2012+ (pit-lane transit, not stationary time) · Ritiro = Finished(Finished·+N Giri) non-Finished statuses
Fonti dei dati: Jolpica-F1 (Ergast compatible API) · weather·Direzione gara OpenF1 (2023+) · Last fetched: 2026-09-05 14:15